Time;durP1;ratioP1;P1;durP2;ratioP2;P2;SDS_P1;SDS_P2;PMS_P1;PMS_P2;Temp;Humidity;BMP_temperature;BMP_pressure;BME280_temperature;BME280_humidity;BME280_pressure;Samples;Min_cycle;Max_cycle;Signal;HPM_P1;HPM_P2
2022/09/16 00:00:16;;;;;;;8.050001;7.25;;;;;;;14.26;83.81445;94742.21;;;;
2022/09/16 00:01:16;;;;;;;8.050001;7.25;;;;;;;14.26;83.81445;94742.21;;;;
2022/09/16 00:02:19;;;;;;;9.5;7.95;;;;;;;14.21;83.82715;94745.17;;;;
2022/09/16 00:03:19;;;;;;;9.5;7.95;;;;;;;14.21;83.82715;94745.17;;;;
2022/09/16 00:04:20;;;;;;;9.5;7.95;;;;;;;14.21;83.82715;94745.17;;;;
2022/09/16 00:05:21;;;;;;;9.5;7.95;;;;;;;14.21;83.82715;94745.17;;;;
2022/09/16 00:06:21;;;;;;;9.5;7.95;;;;;;;14.21;83.82715;94745.17;;;;
2022/09/16 00:07:24;;;;;;;9.5;7.95;;;;;;;14.21;83.82715;94745.17;;;;
2022/09/16 00:08:25;;;;;;;9.5;7.95;;;;;;;14.21;83.82715;94745.17;;;;
2022/09/16 00:09:25;;;;;;;9.5;7.95;;;;;;;14.21;83.82715;94745.17;;;;
2022/09/16 00:10:26;;;;;;;9.5;7.95;;;;;;;14.21;83.82715;94745.17;;;;
2022/09/16 00:11:26;;;;;;;9.5;7.95;;;;;;;14.21;83.82715;94745.17;;;;
2022/09/16 00:12:30;;;;;;;9.5;7.95;;;;;;;14.21;83.82715;94745.17;;;;
2022/09/16 00:13:31;;;;;;;8.65;7.85;;;;;;;14.15;84.03223;94744.44;;;;
2022/09/16 00:14:31;;;;;;;8.65;7.85;;;;;;;14.15;84.03223;94744.44;;;;
2022/09/16 00:15:32;;;;;;;8.65;7.85;;;;;;;14.15;84.03223;94744.44;;;;
2022/09/16 00:16:32;;;;;;;8.65;7.85;;;;;;;14.15;84.03223;94744.44;;;;
2022/09/16 00:17:33;;;;;;;8.65;7.85;;;;;;;14.15;84.03223;94744.44;;;;
2022/09/16 00:18:34;;;;;;;8.65;7.85;;;;;;;14.15;84.03223;94744.44;;;;
2022/09/16 00:19:34;;;;;;;8.65;7.85;;;;;;;14.15;84.03223;94744.44;;;;
2022/09/16 00:20:35;;;;;;;8.65;7.85;;;;;;;14.15;84.03223;94744.44;;;;
2022/09/16 00:21:35;;;;;;;8.65;7.85;;;;;;;14.15;84.03223;94744.44;;;;
2022/09/16 00:22:35;;;;;;;8.65;7.85;;;;;;;14.15;84.03223;94744.44;;;;
2022/09/16 00:23:36;;;;;;;8.65;7.85;;;;;;;14.15;84.03223;94744.44;;;;
2022/09/16 00:24:37;;;;;;;9.049999;8.149999;;;;;;;14.1;84.19531;94721.37;;;;
2022/09/16 00:25:37;;;;;;;9.049999;8.149999;;;;;;;14.1;84.19531;94721.37;;;;
2022/09/16 00:26:38;;;;;;;9.049999;8.149999;;;;;;;14.1;84.19531;94721.37;;;;
2022/09/16 00:27:39;;;;;;;9.049999;8.149999;;;;;;;14.1;84.19531;94721.37;;;;
2022/09/16 00:28:39;;;;;;;9.049999;8.149999;;;;;;;14.1;84.19531;94721.37;;;;
2022/09/16 00:29:40;;;;;;;9.049999;8.149999;;;;;;;14.1;84.19531;94721.37;;;;
2022/09/16 00:30:40;;;;;;;9.049999;8.149999;;;;;;;14.1;84.19531;94721.37;;;;
2022/09/16 00:31:41;;;;;;;9.049999;8.149999;;;;;;;14.1;84.19531;94721.37;;;;
2022/09/16 00:32:41;;;;;;;9.049999;8.149999;;;;;;;14.1;84.19531;94721.37;;;;
2022/09/16 00:33:42;;;;;;;9.049999;8.149999;;;;;;;14.1;84.19531;94721.37;;;;
2022/09/16 00:34:43;;;;;;;9.45;7.799999;;;;;;;14.15;84.43262;94717.86;;;;
2022/09/16 00:35:43;;;;;;;9.45;7.799999;;;;;;;14.15;84.43262;94717.86;;;;
2022/09/16 00:36:44;;;;;;;9.45;7.799999;;;;;;;14.15;84.43262;94717.86;;;;
2022/09/16 00:37:45;;;;;;;9.45;7.799999;;;;;;;14.15;84.43262;94717.86;;;;
2022/09/16 00:38:45;;;;;;;9.45;7.799999;;;;;;;14.15;84.43262;94717.86;;;;
2022/09/16 00:39:49;;;;;;;9.45;7.799999;;;;;;;14.15;84.43262;94717.86;;;;
2022/09/16 00:40:50;;;;;;;9.45;7.799999;;;;;;;14.15;84.43262;94717.86;;;;
2022/09/16 00:41:50;;;;;;;9.45;7.799999;;;;;;;14.15;84.43262;94717.86;;;;
2022/09/16 00:42:51;;;;;;;9.45;7.799999;;;;;;;14.15;84.43262;94717.86;;;;
2022/09/16 00:43:51;;;;;;;9.45;7.799999;;;;;;;14.15;84.43262;94717.86;;;;
2022/09/16 00:44:55;;;;;;;9.45;7.799999;;;;;;;14.15;84.43262;94717.86;;;;
2022/09/16 00:45:59;;;;;;;10.15;7.899999;;;;;;;14.13;84.46191;94705.33;;;;
2022/09/16 00:47:03;;;;;;;10.15;7.899999;;;;;;;14.13;84.46191;94705.33;;;;
2022/09/16 00:48:04;;;;;;;10.15;7.899999;;;;;;;14.13;84.46191;94705.33;;;;
2022/09/16 00:49:06;;;;;;;10.15;7.899999;;;;;;;14.13;84.46191;94705.33;;;;
2022/09/16 00:50:11;;;;;;;10.15;7.899999;;;;;;;14.13;84.46191;94705.33;;;;
2022/09/16 00:51:19;;;;;;;10.15;7.899999;;;;;;;14.13;84.46191;94705.33;;;;
2022/09/16 00:52:21;;;;;;;10.15;7.899999;;;;;;;14.13;84.46191;94705.33;;;;
2022/09/16 00:53:22;;;;;;;10.15;7.899999;;;;;;;14.13;84.46191;94705.33;;;;
2022/09/16 00:54:26;;;;;;;10.15;7.899999;;;;;;;14.13;84.46191;94705.33;;;;
2022/09/16 00:55:29;;;;;;;10.15;7.899999;;;;;;;14.13;84.46191;94705.33;;;;
2022/09/16 00:56:34;;;;;;;8.85;7.349999;;;;;;;14.12;84.58984;94726.7;;;;
2022/09/16 00:57:37;;;;;;;8.85;7.349999;;;;;;;14.12;84.58984;94726.7;;;;
2022/09/16 00:58:40;;;;;;;8.85;7.349999;;;;;;;14.12;84.58984;94726.7;;;;
2022/09/16 00:59:45;;;;;;;8.85;7.349999;;;;;;;14.12;84.58984;94726.7;;;;
2022/09/16 01:00:51;;;;;;;8.85;7.349999;;;;;;;14.12;84.58984;94726.7;;;;
2022/09/16 01:01:52;;;;;;;8.85;7.349999;;;;;;;14.12;84.58984;94726.7;;;;
2022/09/16 01:02:54;;;;;;;8.85;7.349999;;;;;;;14.12;84.58984;94726.7;;;;
2022/09/16 01:03:55;;;;;;;8.85;7.349999;;;;;;;14.12;84.58984;94726.7;;;;
2022/09/16 01:05:01;;;;;;;8.85;7.349999;;;;;;;14.12;84.58984;94726.7;;;;
2022/09/16 01:06:06;;;;;;;8.85;7.349999;;;;;;;14.12;84.58984;94726.7;;;;
2022/09/16 01:07:08;;;;;;;8.650002;7.799999;;;;;;;13.97;84.55957;94724.39;;;;
2022/09/16 01:08:09;;;;;;;8.650002;7.799999;;;;;;;13.97;84.55957;94724.39;;;;
2022/09/16 01:09:09;;;;;;;8.650002;7.799999;;;;;;;13.97;84.55957;94724.39;;;;
2022/09/16 01:10:11;;;;;;;8.650002;7.799999;;;;;;;13.97;84.55957;94724.39;;;;
2022/09/16 01:11:13;;;;;;;8.650002;7.799999;;;;;;;13.97;84.55957;94724.39;;;;
2022/09/16 01:12:13;;;;;;;8.650002;7.799999;;;;;;;13.97;84.55957;94724.39;;;;
2022/09/16 01:13:14;;;;;;;8.650002;7.799999;;;;;;;13.97;84.55957;94724.39;;;;
2022/09/16 01:15:19;;;;;;;8.650002;7.799999;;;;;;;13.97;84.55957;94724.39;;;;
2022/09/16 01:16:24;;;;;;;8.650002;7.799999;;;;;;;13.97;84.55957;94724.39;;;;
2022/09/16 01:17:33;;;;;;;8.550001;7.449999;;;;;;;13.81;84.7793;94715.42;;;;
2022/09/16 01:18:53;;;;;;;8.550001;7.449999;;;;;;;13.81;84.7793;94715.42;;;;
2022/09/16 01:20:04;;;;;;;8.550001;7.449999;;;;;;;13.81;84.7793;94715.42;;;;
2022/09/16 01:21:26;;;;;;;8.550001;7.449999;;;;;;;13.81;84.7793;94715.42;;;;
2022/09/16 01:22:37;;;;;;;8.550001;7.449999;;;;;;;13.81;84.7793;94715.42;;;;
2022/09/16 01:23:54;;;;;;;8.550001;7.449999;;;;;;;13.81;84.7793;94715.42;;;;
2022/09/16 01:25:09;;;;;;;8.550001;7.449999;;;;;;;13.81;84.7793;94715.42;;;;
2022/09/16 01:26:25;;;;;;;8.550001;7.449999;;;;;;;13.81;84.7793;94715.42;;;;
2022/09/16 01:27:47;;;;;;;9.950001;7.499999;;;;;;;13.61;84.95508;94712.89;;;;
2022/09/16 01:29:02;;;;;;;9.950001;7.499999;;;;;;;13.61;84.95508;94712.89;;;;
2022/09/16 01:30:25;;;;;;;9.950001;7.499999;;;;;;;13.61;84.95508;94712.89;;;;
2022/09/16 01:31:43;;;;;;;9.950001;7.499999;;;;;;;13.61;84.95508;94712.89;;;;
2022/09/16 01:32:51;;;;;;;9.950001;7.499999;;;;;;;13.61;84.95508;94712.89;;;;
2022/09/16 01:34:00;;;;;;;9.950001;7.499999;;;;;;;13.61;84.95508;94712.89;;;;
2022/09/16 01:35:13;;;;;;;9.950001;7.499999;;;;;;;13.61;84.95508;94712.89;;;;
2022/09/16 01:36:22;;;;;;;9.950001;7.499999;;;;;;;13.61;84.95508;94712.89;;;;
2022/09/16 01:37:38;;;;;;;9.950001;7.499999;;;;;;;13.61;84.95508;94712.89;;;;
2022/09/16 01:38:46;;;;;;;8.950001;7.849999;;;;;;;13.46;85.23926;94700.3;;;;
2022/09/16 01:40:01;;;;;;;8.950001;7.849999;;;;;;;13.46;85.23926;94700.3;;;;
2022/09/16 01:41:08;;;;;;;8.950001;7.849999;;;;;;;13.46;85.23926;94700.3;;;;
2022/09/16 01:42:23;;;;;;;8.950001;7.849999;;;;;;;13.46;85.23926;94700.3;;;;
2022/09/16 01:43:33;;;;;;;8.950001;7.849999;;;;;;;13.46;85.23926;94700.3;;;;
2022/09/16 01:44:44;;;;;;;8.950001;7.849999;;;;;;;13.46;85.23926;94700.3;;;;
2022/09/16 01:45:52;;;;;;;8.950001;7.849999;;;;;;;13.46;85.23926;94700.3;;;;
2022/09/16 01:46:55;;;;;;;8.950001;7.849999;;;;;;;13.46;85.23926;94700.3;;;;
2022/09/16 01:48:01;;;;;;;8.950001;7.849999;;;;;;;13.46;85.23926;94700.3;;;;
2022/09/16 01:49:09;;;;;;;11.4;8.650001;;;;;;;13.29;85.44434;94707.9;;;;
2022/09/16 01:50:19;;;;;;;11.4;8.650001;;;;;;;13.29;85.44434;94707.9;;;;
2022/09/16 01:51:26;;;;;;;11.4;8.650001;;;;;;;13.29;85.44434;94707.9;;;;
2022/09/16 01:52:32;;;;;;;11.4;8.650001;;;;;;;13.29;85.44434;94707.9;;;;
2022/09/16 01:53:41;;;;;;;11.4;8.650001;;;;;;;13.29;85.44434;94707.9;;;;
2022/09/16 01:54:48;;;;;;;11.4;8.650001;;;;;;;13.29;85.44434;94707.9;;;;
2022/09/16 01:55:55;;;;;;;11.4;8.650001;;;;;;;13.29;85.44434;94707.9;;;;
2022/09/16 01:57:01;;;;;;;11.4;8.650001;;;;;;;13.29;85.44434;94707.9;;;;
2022/09/16 01:58:07;;;;;;;11.4;8.650001;;;;;;;13.29;85.44434;94707.9;;;;
2022/09/16 01:59:16;;;;;;;11.4;8.650001;;;;;;;13.29;85.44434;94707.9;;;;
2022/09/16 02:00:21;;;;;;;9.95;8.200001;;;;;;;13.29;85.6709;94711.88;;;;
2022/09/16 02:01:22;;;;;;;9.95;8.200001;;;;;;;13.29;85.6709;94711.88;;;;
2022/09/16 02:02:31;;;;;;;9.95;8.200001;;;;;;;13.29;85.6709;94711.88;;;;
2022/09/16 02:03:38;;;;;;;9.95;8.200001;;;;;;;13.29;85.6709;94711.88;;;;
2022/09/16 02:04:42;;;;;;;9.95;8.200001;;;;;;;13.29;85.6709;94711.88;;;;
2022/09/16 02:05:48;;;;;;;9.95;8.200001;;;;;;;13.29;85.6709;94711.88;;;;
2022/09/16 02:06:53;;;;;;;9.95;8.200001;;;;;;;13.29;85.6709;94711.88;;;;
2022/09/16 02:07:57;;;;;;;9.95;8.200001;;;;;;;13.29;85.6709;94711.88;;;;
2022/09/16 02:09:03;;;;;;;9.95;8.200001;;;;;;;13.29;85.6709;94711.88;;;;
2022/09/16 02:10:06;;;;;;;9.95;8.200001;;;;;;;13.29;85.6709;94711.88;;;;
2022/09/16 02:11:14;;;;;;;9.200001;8.249999;;;;;;;13.28;85.7666;94720.09;;;;
2022/09/16 02:12:17;;;;;;;9.200001;8.249999;;;;;;;13.28;85.7666;94720.09;;;;
2022/09/16 02:13:24;;;;;;;9.200001;8.249999;;;;;;;13.28;85.7666;94720.09;;;;
2022/09/16 02:14:29;;;;;;;9.200001;8.249999;;;;;;;13.28;85.7666;94720.09;;;;
2022/09/16 02:15:34;;;;;;;9.200001;8.249999;;;;;;;13.28;85.7666;94720.09;;;;
2022/09/16 02:16:37;;;;;;;9.200001;8.249999;;;;;;;13.28;85.7666;94720.09;;;;
2022/09/16 02:17:42;;;;;;;9.200001;8.249999;;;;;;;13.28;85.7666;94720.09;;;;
2022/09/16 02:18:47;;;;;;;9.200001;8.249999;;;;;;;13.28;85.7666;94720.09;;;;
2022/09/16 02:19:53;;;;;;;9.200001;8.249999;;;;;;;13.28;85.7666;94720.09;;;;
2022/09/16 02:20:56;;;;;;;9.200001;8.249999;;;;;;;13.28;85.7666;94720.09;;;;
2022/09/16 02:21:59;;;;;;;9.849999;7.650001;;;;;;;13.35;85.92969;94720.7;;;;
2022/09/16 02:23:04;;;;;;;9.849999;7.650001;;;;;;;13.35;85.92969;94720.7;;;;
2022/09/16 02:24:09;;;;;;;9.849999;7.650001;;;;;;;13.35;85.92969;94720.7;;;;
2022/09/16 02:25:15;;;;;;;9.849999;7.650001;;;;;;;13.35;85.92969;94720.7;;;;
2022/09/16 02:26:18;;;;;;;9.849999;7.650001;;;;;;;13.35;85.92969;94720.7;;;;
2022/09/16 02:27:22;;;;;;;9.849999;7.650001;;;;;;;13.35;85.92969;94720.7;;;;
2022/09/16 02:28:23;;;;;;;9.849999;7.650001;;;;;;;13.35;85.92969;94720.7;;;;
2022/09/16 02:29:29;;;;;;;9.849999;7.650001;;;;;;;13.35;85.92969;94720.7;;;;
2022/09/16 02:30:36;;;;;;;9.849999;7.650001;;;;;;;13.35;85.92969;94720.7;;;;
2022/09/16 02:31:36;;;;;;;9.849999;7.650001;;;;;;;13.35;85.92969;94720.7;;;;
2022/09/16 02:32:38;;;;;;;9.1;7.7;;;;;;;13.35;86.1582;94718.46;;;;
2022/09/16 02:33:43;;;;;;;9.1;7.7;;;;;;;13.35;86.1582;94718.46;;;;
2022/09/16 02:34:49;;;;;;;9.1;7.7;;;;;;;13.35;86.1582;94718.46;;;;
2022/09/16 02:35:51;;;;;;;9.1;7.7;;;;;;;13.35;86.1582;94718.46;;;;
2022/09/16 02:36:55;;;;;;;9.1;7.7;;;;;;;13.35;86.1582;94718.46;;;;
2022/09/16 02:38:03;;;;;;;9.1;7.7;;;;;;;13.35;86.1582;94718.46;;;;
2022/09/16 02:39:08;;;;;;;9.1;7.7;;;;;;;13.35;86.1582;94718.46;;;;
2022/09/16 02:40:13;;;;;;;9.1;7.7;;;;;;;13.35;86.1582;94718.46;;;;
2022/09/16 02:41:19;;;;;;;9.1;7.7;;;;;;;13.35;86.1582;94718.46;;;;
2022/09/16 02:42:19;;;;;;;9.1;7.7;;;;;;;13.35;86.1582;94718.46;;;;
2022/09/16 02:43:20;;;;;;;10.9;7.7;;;;;;;13.46;86.40527;94725.52;;;;
2022/09/16 02:44:22;;;;;;;10.9;7.7;;;;;;;13.46;86.40527;94725.52;;;;
2022/09/16 02:45:24;;;;;;;10.9;7.7;;;;;;;13.46;86.40527;94725.52;;;;
2022/09/16 02:46:35;;;;;;;10.9;7.7;;;;;;;13.46;86.40527;94725.52;;;;
2022/09/16 02:47:41;;;;;;;10.9;7.7;;;;;;;13.46;86.40527;94725.52;;;;
2022/09/16 02:48:53;;;;;;;10.9;7.7;;;;;;;13.46;86.40527;94725.52;;;;
2022/09/16 02:50:03;;;;;;;10.9;7.7;;;;;;;13.46;86.40527;94725.52;;;;
2022/09/16 02:51:11;;;;;;;10.9;7.7;;;;;;;13.46;86.40527;94725.52;;;;
2022/09/16 02:52:17;;;;;;;10.9;7.7;;;;;;;13.46;86.40527;94725.52;;;;
2022/09/16 02:53:27;;;;;;;8.6;7.699999;;;;;;;13.57;85.98438;94712.67;;;;
2022/09/16 02:54:42;;;;;;;8.6;7.699999;;;;;;;13.57;85.98438;94712.67;;;;
2022/09/16 02:55:49;;;;;;;8.6;7.699999;;;;;;;13.57;85.98438;94712.67;;;;
2022/09/16 02:56:54;;;;;;;8.6;7.699999;;;;;;;13.57;85.98438;94712.67;;;;
2022/09/16 02:57:56;;;;;;;8.6;7.699999;;;;;;;13.57;85.98438;94712.67;;;;
2022/09/16 02:58:56;;;;;;;8.6;7.699999;;;;;;;13.57;85.98438;94712.67;;;;
2022/09/16 02:59:57;;;;;;;8.6;7.699999;;;;;;;13.57;85.98438;94712.67;;;;
2022/09/16 03:00:58;;;;;;;8.6;7.699999;;;;;;;13.57;85.98438;94712.67;;;;
2022/09/16 03:02:00;;;;;;;8.6;7.699999;;;;;;;13.57;85.98438;94712.67;;;;
2022/09/16 03:03:00;;;;;;;8.6;7.699999;;;;;;;13.57;85.98438;94712.67;;;;
2022/09/16 03:04:01;;;;;;;8.6;7.699999;;;;;;;13.57;85.98438;94712.67;;;;
2022/09/16 03:05:02;;;;;;;8.6;7.699999;;;;;;;13.57;85.98438;94712.67;;;;
2022/09/16 03:06:04;;;;;;;8.6;7.699999;;;;;;;13.57;85.98438;94712.67;;;;
2022/09/16 03:07:14;;;;;;;8.6;7.699999;;;;;;;13.57;85.98438;94712.67;;;;
2022/09/16 03:08:16;;;;;;;8.6;7.699999;;;;;;;13.57;85.98438;94712.67;;;;
2022/09/16 03:09:17;;;;;;;8.6;7.699999;;;;;;;13.57;85.98438;94712.67;;;;
2022/09/16 03:10:17;;;;;;;8.6;7.699999;;;;;;;13.57;85.98438;94712.67;;;;
2022/09/16 03:11:18;;;;;;;8.6;7.699999;;;;;;;13.57;85.98438;94712.67;;;;
2022/09/16 03:12:35;;;;;;;8.6;7.699999;;;;;;;13.57;85.98438;94712.67;;;;
2022/09/16 03:13:46;;;;;;;8.6;7.699999;;;;;;;13.57;85.98438;94712.67;;;;
2022/09/16 03:14:53;;;;;;;8.699999;7.900001;;;;;;;13.59;85.98828;94703.02;;;;
2022/09/16 03:16:41;;;;;;;8.699999;7.900001;;;;;;;13.59;85.98828;94703.02;;;;
2022/09/16 03:17:52;;;;;;;8.699999;7.900001;;;;;;;13.59;85.98828;94703.02;;;;
2022/09/16 03:19:11;;;;;;;8.699999;7.900001;;;;;;;13.59;85.98828;94703.02;;;;
2022/09/16 03:20:20;;;;;;;8.699999;7.900001;;;;;;;13.59;85.98828;94703.02;;;;
2022/09/16 03:21:29;;;;;;;8.699999;7.900001;;;;;;;13.59;85.98828;94703.02;;;;
2022/09/16 03:22:39;;;;;;;8.699999;7.900001;;;;;;;13.59;85.98828;94703.02;;;;
2022/09/16 03:23:47;;;;;;;8.699999;7.900001;;;;;;;13.59;85.98828;94703.02;;;;
2022/09/16 03:24:55;;;;;;;8.699999;7.900001;;;;;;;13.59;85.98828;94703.02;;;;
2022/09/16 03:26:02;;;;;;;9.049999;8.200001;;;;;;;13.6;86.16504;94697.99;;;;
2022/09/16 03:27:10;;;;;;;9.049999;8.200001;;;;;;;13.6;86.16504;94697.99;;;;
2022/09/16 03:28:18;;;;;;;9.049999;8.200001;;;;;;;13.6;86.16504;94697.99;;;;
2022/09/16 03:29:22;;;;;;;9.049999;8.200001;;;;;;;13.6;86.16504;94697.99;;;;
2022/09/16 03:30:27;;;;;;;9.049999;8.200001;;;;;;;13.6;86.16504;94697.99;;;;
2022/09/16 03:31:31;;;;;;;9.049999;8.200001;;;;;;;13.6;86.16504;94697.99;;;;
2022/09/16 03:32:38;;;;;;;9.049999;8.200001;;;;;;;13.6;86.16504;94697.99;;;;
2022/09/16 03:33:47;;;;;;;9.049999;8.200001;;;;;;;13.6;86.16504;94697.99;;;;
2022/09/16 03:34:52;;;;;;;9.049999;8.200001;;;;;;;13.6;86.16504;94697.99;;;;
2022/09/16 03:35:59;;;;;;;9.550001;8.550001;;;;;;;13.46;86.12695;94679.88;;;;
2022/09/16 03:37:04;;;;;;;9.550001;8.550001;;;;;;;13.46;86.12695;94679.88;;;;
2022/09/16 03:38:09;;;;;;;9.550001;8.550001;;;;;;;13.46;86.12695;94679.88;;;;
2022/09/16 03:39:12;;;;;;;9.550001;8.550001;;;;;;;13.46;86.12695;94679.88;;;;
2022/09/16 03:40:13;;;;;;;9.550001;8.550001;;;;;;;13.46;86.12695;94679.88;;;;
2022/09/16 03:41:17;;;;;;;9.550001;8.550001;;;;;;;13.46;86.12695;94679.88;;;;
2022/09/16 03:42:18;;;;;;;9.550001;8.550001;;;;;;;13.46;86.12695;94679.88;;;;
2022/09/16 03:43:20;;;;;;;9.550001;8.550001;;;;;;;13.46;86.12695;94679.88;;;;
2022/09/16 03:44:20;;;;;;;9.550001;8.550001;;;;;;;13.46;86.12695;94679.88;;;;
2022/09/16 03:45:30;;;;;;;9.550001;8.550001;;;;;;;13.46;86.12695;94679.88;;;;
2022/09/16 03:46:31;;;;;;;9.9;8.75;;;;;;;13.32;86.26074;94678.21;;;;
2022/09/16 03:47:31;;;;;;;9.9;8.75;;;;;;;13.32;86.26074;94678.21;;;;
2022/09/16 03:48:32;;;;;;;9.9;8.75;;;;;;;13.32;86.26074;94678.21;;;;
2022/09/16 03:49:33;;;;;;;9.9;8.75;;;;;;;13.32;86.26074;94678.21;;;;
2022/09/16 03:50:34;;;;;;;9.9;8.75;;;;;;;13.32;86.26074;94678.21;;;;
2022/09/16 03:51:34;;;;;;;9.9;8.75;;;;;;;13.32;86.26074;94678.21;;;;
2022/09/16 03:52:35;;;;;;;9.9;8.75;;;;;;;13.32;86.26074;94678.21;;;;
2022/09/16 03:53:35;;;;;;;9.9;8.75;;;;;;;13.32;86.26074;94678.21;;;;
2022/09/16 03:54:36;;;;;;;9.9;8.75;;;;;;;13.32;86.26074;94678.21;;;;
2022/09/16 03:55:37;;;;;;;9.9;8.75;;;;;;;13.32;86.26074;94678.21;;;;
2022/09/16 03:56:38;;;;;;;9.9;8.75;;;;;;;13.32;86.26074;94678.21;;;;
2022/09/16 03:57:38;;;;;;;10.55;9.5;;;;;;;13.07;86.26563;94666.79;;;;
2022/09/16 03:58:38;;;;;;;10.55;9.5;;;;;;;13.07;86.26563;94666.79;;;;
2022/09/16 03:59:40;;;;;;;10.55;9.5;;;;;;;13.07;86.26563;94666.79;;;;
2022/09/16 04:00:41;;;;;;;10.55;9.5;;;;;;;13.07;86.26563;94666.79;;;;
2022/09/16 04:01:41;;;;;;;10.55;9.5;;;;;;;13.07;86.26563;94666.79;;;;
2022/09/16 04:02:42;;;;;;;10.55;9.5;;;;;;;13.07;86.26563;94666.79;;;;
2022/09/16 04:03:43;;;;;;;10.55;9.5;;;;;;;13.07;86.26563;94666.79;;;;
2022/09/16 04:04:43;;;;;;;10.55;9.5;;;;;;;13.07;86.26563;94666.79;;;;
2022/09/16 04:05:44;;;;;;;10.55;9.5;;;;;;;13.07;86.26563;94666.79;;;;
2022/09/16 04:06:45;;;;;;;10.55;9.5;;;;;;;13.07;86.26563;94666.79;;;;
2022/09/16 04:07:45;;;;;;;10.55;9.5;;;;;;;13.07;86.26563;94666.79;;;;
2022/09/16 04:08:49;;;;;;;10.4;9.4;;;;;;;12.98;86.69043;94684;;;;
2022/09/16 04:09:50;;;;;;;10.4;9.4;;;;;;;12.98;86.69043;94684;;;;
2022/09/16 04:10:50;;;;;;;10.4;9.4;;;;;;;12.98;86.69043;94684;;;;
2022/09/16 04:11:54;;;;;;;10.4;9.4;;;;;;;12.98;86.69043;94684;;;;
2022/09/16 04:12:54;;;;;;;10.4;9.4;;;;;;;12.98;86.69043;94684;;;;
2022/09/16 04:13:56;;;;;;;10.4;9.4;;;;;;;12.98;86.69043;94684;;;;
2022/09/16 04:14:57;;;;;;;10.4;9.4;;;;;;;12.98;86.69043;94684;;;;
2022/09/16 04:15:57;;;;;;;10.4;9.4;;;;;;;12.98;86.69043;94684;;;;
2022/09/16 04:16:58;;;;;;;10.4;9.4;;;;;;;12.98;86.69043;94684;;;;
2022/09/16 04:17:59;;;;;;;10.4;9.4;;;;;;;12.98;86.69043;94684;;;;
2022/09/16 04:18:59;;;;;;;10.3;9.299999;;;;;;;12.98;86.8418;94685.33;;;;
2022/09/16 04:20:00;;;;;;;10.3;9.299999;;;;;;;12.98;86.8418;94685.33;;;;
2022/09/16 04:21:01;;;;;;;10.3;9.299999;;;;;;;12.98;86.8418;94685.33;;;;
2022/09/16 04:22:03;;;;;;;10.3;9.299999;;;;;;;12.98;86.8418;94685.33;;;;
2022/09/16 04:23:03;;;;;;;10.3;9.299999;;;;;;;12.98;86.8418;94685.33;;;;
2022/09/16 04:24:04;;;;;;;10.3;9.299999;;;;;;;12.98;86.8418;94685.33;;;;
2022/09/16 04:25:05;;;;;;;10.3;9.299999;;;;;;;12.98;86.8418;94685.33;;;;
2022/09/16 04:26:07;;;;;;;10.3;9.299999;;;;;;;12.98;86.8418;94685.33;;;;
2022/09/16 04:27:09;;;;;;;10.3;9.299999;;;;;;;12.98;86.8418;94685.33;;;;
2022/09/16 04:28:09;;;;;;;10.3;9.299999;;;;;;;12.98;86.8418;94685.33;;;;
2022/09/16 04:29:10;;;;;;;11.25;9.9;;;;;;;13.05;86.97363;94693.98;;;;
2022/09/16 04:30:11;;;;;;;11.25;9.9;;;;;;;13.05;86.97363;94693.98;;;;
2022/09/16 04:31:12;;;;;;;11.25;9.9;;;;;;;13.05;86.97363;94693.98;;;;
2022/09/16 04:32:14;;;;;;;11.25;9.9;;;;;;;13.05;86.97363;94693.98;;;;
2022/09/16 04:33:15;;;;;;;11.25;9.9;;;;;;;13.05;86.97363;94693.98;;;;
2022/09/16 04:34:15;;;;;;;11.25;9.9;;;;;;;13.05;86.97363;94693.98;;;;
2022/09/16 04:35:18;;;;;;;11.25;9.9;;;;;;;13.05;86.97363;94693.98;;;;
2022/09/16 04:36:19;;;;;;;11.25;9.9;;;;;;;13.05;86.97363;94693.98;;;;
2022/09/16 04:37:19;;;;;;;11.25;9.9;;;;;;;13.05;86.97363;94693.98;;;;
2022/09/16 04:38:20;;;;;;;11.25;9.9;;;;;;;13.05;86.97363;94693.98;;;;
2022/09/16 04:39:21;;;;;;;11.25;9.9;;;;;;;13.05;86.97363;94693.98;;;;
2022/09/16 04:40:21;;;;;;;12.2;10;;;;;;;13.09;86.98242;94699.1;;;;
2022/09/16 04:41:21;;;;;;;12.2;10;;;;;;;13.09;86.98242;94699.1;;;;
2022/09/16 04:42:25;;;;;;;12.2;10;;;;;;;13.09;86.98242;94699.1;;;;
2022/09/16 04:43:25;;;;;;;12.2;10;;;;;;;13.09;86.98242;94699.1;;;;
2022/09/16 04:44:26;;;;;;;12.2;10;;;;;;;13.09;86.98242;94699.1;;;;
2022/09/16 04:45:26;;;;;;;12.2;10;;;;;;;13.09;86.98242;94699.1;;;;
2022/09/16 04:46:27;;;;;;;12.2;10;;;;;;;13.09;86.98242;94699.1;;;;
2022/09/16 04:47:29;;;;;;;12.2;10;;;;;;;13.09;86.98242;94699.1;;;;
2022/09/16 04:48:30;;;;;;;12.2;10;;;;;;;13.09;86.98242;94699.1;;;;
2022/09/16 04:49:30;;;;;;;12.2;10;;;;;;;13.09;86.98242;94699.1;;;;
2022/09/16 04:50:31;;;;;;;12.35;11.1;;;;;;;13.2;87.13184;94698.21;;;;
2022/09/16 04:51:31;;;;;;;12.35;11.1;;;;;;;13.2;87.13184;94698.21;;;;
2022/09/16 04:52:33;;;;;;;12.35;11.1;;;;;;;13.2;87.13184;94698.21;;;;
2022/09/16 04:53:33;;;;;;;12.35;11.1;;;;;;;13.2;87.13184;94698.21;;;;
2022/09/16 04:54:34;;;;;;;12.35;11.1;;;;;;;13.2;87.13184;94698.21;;;;
2022/09/16 04:55:35;;;;;;;12.35;11.1;;;;;;;13.2;87.13184;94698.21;;;;
2022/09/16 04:56:35;;;;;;;12.35;11.1;;;;;;;13.2;87.13184;94698.21;;;;
2022/09/16 04:57:36;;;;;;;12.35;11.1;;;;;;;13.2;87.13184;94698.21;;;;
2022/09/16 04:58:37;;;;;;;12.35;11.1;;;;;;;13.2;87.13184;94698.21;;;;
2022/09/16 04:59:37;;;;;;;12.35;11.1;;;;;;;13.2;87.13184;94698.21;;;;
2022/09/16 05:00:38;;;;;;;12.35;11.1;;;;;;;13.2;87.13184;94698.21;;;;
2022/09/16 05:01:39;;;;;;;12.4;10.6;;;;;;;13.29;87.10547;94700.45;;;;
2022/09/16 05:02:39;;;;;;;12.4;10.6;;;;;;;13.29;87.10547;94700.45;;;;
2022/09/16 05:03:43;;;;;;;12.4;10.6;;;;;;;13.29;87.10547;94700.45;;;;
2022/09/16 05:04:45;;;;;;;12.4;10.6;;;;;;;13.29;87.10547;94700.45;;;;
2022/09/16 05:05:46;;;;;;;12.4;10.6;;;;;;;13.29;87.10547;94700.45;;;;
2022/09/16 05:06:46;;;;;;;12.4;10.6;;;;;;;13.29;87.10547;94700.45;;;;
2022/09/16 05:07:47;;;;;;;12.4;10.6;;;;;;;13.29;87.10547;94700.45;;;;
2022/09/16 05:08:47;;;;;;;12.4;10.6;;;;;;;13.29;87.10547;94700.45;;;;
2022/09/16 05:09:49;;;;;;;12.4;10.6;;;;;;;13.29;87.10547;94700.45;;;;
2022/09/16 05:10:49;;;;;;;12.4;10.6;;;;;;;13.29;87.10547;94700.45;;;;
2022/09/16 05:11:50;;;;;;;12.4;10.6;;;;;;;13.29;87.10547;94700.45;;;;
2022/09/16 05:12:51;;;;;;;13.15;11.05;;;;;;;13.41;87.23535;94701.14;;;;
2022/09/16 05:13:52;;;;;;;13.15;11.05;;;;;;;13.41;87.23535;94701.14;;;;
2022/09/16 05:14:53;;;;;;;13.15;11.05;;;;;;;13.41;87.23535;94701.14;;;;
2022/09/16 05:15:53;;;;;;;13.15;11.05;;;;;;;13.41;87.23535;94701.14;;;;
2022/09/16 05:16:54;;;;;;;13.15;11.05;;;;;;;13.41;87.23535;94701.14;;;;
2022/09/16 05:17:54;;;;;;;13.15;11.05;;;;;;;13.41;87.23535;94701.14;;;;
2022/09/16 05:18:55;;;;;;;13.15;11.05;;;;;;;13.41;87.23535;94701.14;;;;
2022/09/16 05:19:58;;;;;;;13.15;11.05;;;;;;;13.41;87.23535;94701.14;;;;
2022/09/16 05:20:58;;;;;;;13.15;11.05;;;;;;;13.41;87.23535;94701.14;;;;
2022/09/16 05:22:05;;;;;;;13.15;11.05;;;;;;;13.41;87.23535;94701.14;;;;
2022/09/16 05:23:06;;;;;;;13.8;11.2;;;;;;;13.45;87.07227;94699.11;;;;
2022/09/16 05:24:07;;;;;;;13.8;11.2;;;;;;;13.45;87.07227;94699.11;;;;
2022/09/16 05:25:10;;;;;;;13.8;11.2;;;;;;;13.45;87.07227;94699.11;;;;
2022/09/16 05:26:11;;;;;;;13.8;11.2;;;;;;;13.45;87.07227;94699.11;;;;
2022/09/16 05:27:13;;;;;;;13.8;11.2;;;;;;;13.45;87.07227;94699.11;;;;
2022/09/16 05:28:14;;;;;;;13.8;11.2;;;;;;;13.45;87.07227;94699.11;;;;
2022/09/16 05:29:14;;;;;;;13.8;11.2;;;;;;;13.45;87.07227;94699.11;;;;
2022/09/16 05:30:16;;;;;;;13.8;11.2;;;;;;;13.45;87.07227;94699.11;;;;
2022/09/16 05:31:17;;;;;;;13.8;11.2;;;;;;;13.45;87.07227;94699.11;;;;
2022/09/16 05:32:20;;;;;;;13.8;11.2;;;;;;;13.45;87.07227;94699.11;;;;
2022/09/16 05:33:20;;;;;;;13.25;11.7;;;;;;;13.44;87.18066;94704.53;;;;
2022/09/16 05:34:22;;;;;;;13.25;11.7;;;;;;;13.44;87.18066;94704.53;;;;
2022/09/16 05:35:22;;;;;;;13.25;11.7;;;;;;;13.44;87.18066;94704.53;;;;
2022/09/16 05:36:23;;;;;;;13.25;11.7;;;;;;;13.44;87.18066;94704.53;;;;
2022/09/16 05:37:25;;;;;;;13.25;11.7;;;;;;;13.44;87.18066;94704.53;;;;
2022/09/16 05:38:25;;;;;;;13.25;11.7;;;;;;;13.44;87.18066;94704.53;;;;
2022/09/16 05:39:26;;;;;;;13.25;11.7;;;;;;;13.44;87.18066;94704.53;;;;
2022/09/16 05:40:27;;;;;;;13.25;11.7;;;;;;;13.44;87.18066;94704.53;;;;
2022/09/16 05:41:28;;;;;;;13.25;11.7;;;;;;;13.44;87.18066;94704.53;;;;
2022/09/16 05:42:28;;;;;;;13.25;11.7;;;;;;;13.44;87.18066;94704.53;;;;
2022/09/16 05:43:29;;;;;;;13.25;11.7;;;;;;;13.44;87.18066;94704.53;;;;
2022/09/16 05:44:31;;;;;;;14.75;12.1;;;;;;;13.49;87.21094;94684.28;;;;
2022/09/16 05:45:31;;;;;;;14.75;12.1;;;;;;;13.49;87.21094;94684.28;;;;
2022/09/16 05:46:32;;;;;;;14.75;12.1;;;;;;;13.49;87.21094;94684.28;;;;
2022/09/16 05:47:32;;;;;;;14.75;12.1;;;;;;;13.49;87.21094;94684.28;;;;